PWSweather.com
Personal Weather Stations
Station Observations
LOBIOS
Galicia, LobiosES

GaliciaLobiosES

Lat: 41.895, Lon: -8.091667

Elevation: 1597

Station Type: Automática/Davis Vantage Pro2 Plus

Latest ConditionsUpdated 9:20:02 AM GMT+01:01 Wednesday, Jan 23, 2019
Currently Today's Max Today's Min Today's Average
Temperature 47.8°F8.8°C 47.8°F8.8°C 45.0°F7.2°C 46.3°F7.9°C
Dew Point 45.9°F7.7°C 45.9°F7.7°C 42.8°F6.0°C 44.1°F6.7°C
Winds 8.1 mph SW13.0 kmh SW 12.7 mph -20.4 kmh - - 5.6 mph 9.0 kmh
Wind Gusts 10.4 mph16.7 kmh 16.1 mph25.9 kmh - -
Humidity 93% 93% 90% 92%
Pressure 30.07 in1018.3 mb 30.12 in1020.0 mb 30.05 in1017.6 mb -
Precipitation - 0.02 in0.5 mm - -
Hour Temp Dew Point Humidity Winds Wind Gusts Pressure Precip Precip Rate Daily Precip Total
09:20 AM 47.8°F8.8°C 45.9°F7.7°C 93% 8.1 mph SW13.0 kmh SW 10.4 mph16.7 kmh 30.07 in1018.3 mb - 0.00 in0.0 mm 0.02 in0.5 mm
09:10 AM 47.7°F8.7°C 45.8°F7.7°C 93% 8.1 mph SW13.0 kmh SW 10.4 mph16.7 kmh 30.07 in1018.3 mb - 0.00 in0.0 mm 0.02 in0.5 mm
09:00 AM 47.7°F8.7°C 45.8°F7.7°C 93% 6.9 mph SSW11.1 kmh SSW 10.4 mph16.7 kmh 30.07 in1018.3 mb - 0.00 in0.0 mm 0.02 in0.5 mm
08:50 AM 47.7°F8.7°C 45.8°F7.7°C 93% 3.5 mph SSW5.6 kmh SSW 8.1 mph13.0 kmh 30.07 in1018.3 mb - 0.00 in0.0 mm 0.02 in0.5 mm
08:40 AM 47.6°F8.7°C 45.7°F7.6°C 93% 6.9 mph SSW11.1 kmh SSW 9.2 mph14.8 kmh 30.07 in1018.3 mb - 0.00 in0.0 mm 0.02 in0.5 mm
08:30 AM 47.6°F8.7°C 45.7°F7.6°C 93% 6.9 mph SSW11.1 kmh SSW 11.5 mph18.5 kmh 30.06 in1017.9 mb - 0.01 in0.3 mm 0.02 in0.5 mm
08:20 AM 47.5°F8.6°C 45.6°F7.6°C 93% 9.2 mph SW14.8 kmh SW 10.4 mph16.7 kmh 30.06 in1017.9 mb - 0.00 in0.0 mm 0.02 in0.5 mm
08:10 AM 47.4°F8.6°C 45.2°F7.3°C 92% 5.8 mph SW9.3 kmh SW 11.5 mph18.5 kmh 30.06 in1017.9 mb - 0.00 in0.0 mm 0.02 in0.5 mm
08:00 AM 47.3°F8.5°C 45.1°F7.3°C 92% 5.8 mph SSW9.3 kmh SSW 11.5 mph18.5 kmh 30.06 in1017.9 mb - 0.00 in0.0 mm 0.02 in0.5 mm
07:50 AM 47.2°F8.4°C 45.0°F7.2°C 92% 3.5 mph SSW5.6 kmh SSW 6.9 mph11.1 kmh 30.05 in1017.6 mb - 0.00 in0.0 mm 0.02 in0.5 mm
07:40 AM 47.2°F8.4°C 45.0°F7.2°C 92% 12.7 mph SSW20.4 kmh SSW 16.1 mph25.9 kmh 30.05 in1017.6 mb - 0.00 in0.0 mm 0.02 in0.5 mm
07:30 AM 47.2°F8.4°C 45.0°F7.2°C 92% 5.8 mph WSW9.3 kmh WSW 6.9 mph11.1 kmh 30.06 in1017.9 mb - 0.00 in0.0 mm 0.02 in0.5 mm
07:20 AM 47.1°F8.4°C 44.9°F7.2°C 92% 5.8 mph SSW9.3 kmh SSW 9.2 mph14.8 kmh 30.05 in1017.6 mb - 0.00 in0.0 mm 0.02 in0.5 mm
07:10 AM 47.0°F8.3°C 44.8°F7.1°C 92% 4.6 mph SSW7.4 kmh SSW 8.1 mph13.0 kmh 30.06 in1017.9 mb - 0.00 in0.0 mm 0.02 in0.5 mm
07:00 AM 47.0°F8.3°C 44.8°F7.1°C 92% 6.9 mph SSW11.1 kmh SSW 8.1 mph13.0 kmh 30.06 in1017.9 mb - 0.00 in0.0 mm 0.02 in0.5 mm
06:50 AM 46.8°F8.2°C 44.6°F7.0°C 92% 10.4 mph SW16.7 kmh SW 13.8 mph22.2 kmh 30.06 in1017.9 mb - 0.00 in0.0 mm 0.02 in0.5 mm
06:30 AM 46.6°F8.1°C 44.4°F6.9°C 92% 8.1 mph SSW13.0 kmh SSW 13.8 mph22.2 kmh 30.06 in1017.9 mb - 0.00 in0.0 mm 0.02 in0.5 mm
06:20 AM 46.5°F8.1°C 44.3°F6.8°C 92% 3.5 mph SE5.6 kmh SE 5.8 mph9.3 kmh 30.06 in1017.9 mb - 0.00 in0.0 mm 0.02 in0.5 mm
06:10 AM 46.5°F8.1°C 44.0°F6.7°C 91% 1.1 mph SSW1.8 kmh SSW 2.3 mph3.7 kmh 30.06 in1017.9 mb - 0.00 in0.0 mm 0.02 in0.5 mm
06:00 AM 46.4°F8.0°C 43.9°F6.6°C 91% 4.6 mph SSW7.4 kmh SSW 4.6 mph7.4 kmh 30.06 in1017.9 mb - 0.00 in0.0 mm 0.02 in0.5 mm
05:50 AM 46.4°F8.0°C 43.9°F6.6°C 91% 4.6 mph SW7.4 kmh SW 6.9 mph11.1 kmh 30.07 in1018.3 mb - 0.00 in0.0 mm 0.02 in0.5 mm
05:40 AM 46.3°F7.9°C 43.8°F6.6°C 91% Calm Calm 2.3 mph3.7 kmh 30.06 in1017.9 mb - 0.00 in0.0 mm 0.02 in0.5 mm
05:30 AM 46.3°F7.9°C 43.8°F6.6°C 91% 2.3 mph S3.7 kmh S 5.8 mph9.3 kmh 30.07 in1018.3 mb - 0.00 in0.0 mm 0.02 in0.5 mm
05:20 AM 46.2°F7.9°C 43.4°F6.3°C 90% Calm Calm -- 30.07 in1018.3 mb - 0.01 in0.3 mm 0.02 in0.5 mm
05:10 AM 46.3°F7.9°C 43.5°F6.4°C 90% 1.1 mph NW1.8 kmh NW 3.5 mph5.6 kmh 30.07 in1018.3 mb - 0.00 in0.0 mm 0.01 in0.3 mm
05:00 AM 46.3°F7.9°C 43.5°F6.4°C 90% 4.6 mph SW7.4 kmh SW 5.8 mph9.3 kmh 30.07 in1018.3 mb - 0.00 in0.0 mm 0.01 in0.3 mm
04:50 AM 46.2°F7.9°C 43.7°F6.5°C 91% 5.8 mph SSW9.3 kmh SSW 8.1 mph13.0 kmh 30.07 in1018.3 mb - 0.00 in0.0 mm 0.01 in0.3 mm
04:40 AM 46.1°F7.8°C 43.6°F6.4°C 91% 6.9 mph WSW11.1 kmh WSW 9.2 mph14.8 kmh 30.07 in1018.3 mb - 0.00 in0.0 mm 0.01 in0.3 mm
04:30 AM 45.9°F7.7°C 43.7°F6.5°C 92% 1.1 mph S1.8 kmh S 3.5 mph5.6 kmh 30.09 in1019.0 mb - 0.00 in0.0 mm 0.01 in0.3 mm
04:20 AM 45.9°F7.7°C 43.7°F6.5°C 92% 9.2 mph SW14.8 kmh SW 11.5 mph18.5 kmh 30.08 in1018.6 mb - 0.00 in0.0 mm 0.01 in0.3 mm
04:10 AM 45.9°F7.7°C 43.7°F6.5°C 92% Calm Calm -- 30.09 in1019.0 mb - 0.00 in0.0 mm 0.01 in0.3 mm
04:00 AM 45.9°F7.7°C 44.0°F6.7°C 93% 9.2 mph SSW14.8 kmh SSW 13.8 mph22.2 kmh 30.09 in1019.0 mb - 0.00 in0.0 mm 0.01 in0.3 mm
03:50 AM 45.8°F7.7°C 43.9°F6.6°C 93% 5.8 mph SW9.3 kmh SW 5.8 mph9.3 kmh 30.10 in1019.3 mb - 0.00 in0.0 mm 0.01 in0.3 mm
03:40 AM 46.1°F7.8°C 44.2°F6.8°C 93% 8.1 mph SW13.0 kmh SW 15.0 mph24.1 kmh 30.08 in1018.6 mb - 0.00 in0.0 mm 0.01 in0.3 mm
03:30 AM 46.2°F7.9°C 44.3°F6.8°C 93% Calm Calm 3.5 mph5.6 kmh 30.09 in1019.0 mb - 0.00 in0.0 mm 0.01 in0.3 mm
03:20 AM 46.4°F8.0°C 44.5°F6.9°C 93% 6.9 mph SW11.1 kmh SW 12.7 mph20.4 kmh 30.09 in1019.0 mb - 0.00 in0.0 mm 0.01 in0.3 mm
03:10 AM 46.3°F7.9°C 44.4°F6.9°C 93% 5.8 mph SW9.3 kmh SW 8.1 mph13.0 kmh 30.09 in1019.0 mb - 0.00 in0.0 mm 0.01 in0.3 mm
03:00 AM 46.3°F7.9°C 44.4°F6.9°C 93% 4.6 mph WSW7.4 kmh WSW 5.8 mph9.3 kmh 30.08 in1018.6 mb - 0.00 in0.0 mm 0.01 in0.3 mm
02:50 AM 46.3°F7.9°C 44.4°F6.9°C 93% 9.2 mph SW14.8 kmh SW 11.5 mph18.5 kmh 30.07 in1018.3 mb - 0.00 in0.0 mm 0.01 in0.3 mm
02:40 AM 46.3°F7.9°C 44.4°F6.9°C 93% 3.5 mph SSW5.6 kmh SSW 8.1 mph13.0 kmh 30.07 in1018.3 mb - 0.00 in0.0 mm 0.01 in0.3 mm
02:30 AM 46.3°F7.9°C 44.4°F6.9°C 93% Calm Calm 1.1 mph1.8 kmh 30.07 in1018.3 mb - 0.00 in0.0 mm 0.01 in0.3 mm
02:20 AM 46.1°F7.8°C 44.2°F6.8°C 93% 11.5 mph SW18.5 kmh SW 11.5 mph18.5 kmh 30.09 in1019.0 mb - 0.00 in0.0 mm 0.01 in0.3 mm
02:10 AM 45.8°F7.7°C 43.9°F6.6°C 93% 8.1 mph WSW13.0 kmh WSW 9.2 mph14.8 kmh 30.09 in1019.0 mb - 0.00 in0.0 mm 0.01 in0.3 mm
02:00 AM 45.5°F7.5°C 43.6°F6.4°C 93% 8.1 mph SW13.0 kmh SW 9.2 mph14.8 kmh 30.10 in1019.3 mb - 0.00 in0.0 mm 0.01 in0.3 mm
01:50 AM 45.3°F7.4°C 43.4°F6.3°C 93% 8.1 mph SSW13.0 kmh SSW 12.7 mph20.4 kmh 30.09 in1019.0 mb - 0.00 in0.0 mm 0.01 in0.3 mm
01:40 AM 45.2°F7.3°C 43.3°F6.3°C 93% 5.8 mph SW9.3 kmh SW 8.1 mph13.0 kmh 30.09 in1019.0 mb - 0.00 in0.0 mm 0.01 in0.3 mm
01:30 AM 45.2°F7.3°C 43.3°F6.3°C 93% 6.9 mph SW11.1 kmh SW 10.4 mph16.7 kmh 30.10 in1019.3 mb - 0.00 in0.0 mm 0.01 in0.3 mm
01:20 AM 45.1°F7.3°C 42.9°F6.1°C 92% 1.1 mph SW1.8 kmh SW 4.6 mph7.4 kmh 30.10 in1019.3 mb - 0.01 in0.3 mm 0.01 in0.3 mm
01:10 AM 45.1°F7.3°C 42.9°F6.1°C 92% 5.8 mph SW9.3 kmh SW 6.9 mph11.1 kmh 30.11 in1019.6 mb - 0.00 in0.0 mm 0.00 in0.0 mm
01:00 AM 45.0°F7.2°C 42.8°F6.0°C 92% 5.8 mph SW9.3 kmh SW 8.1 mph13.0 kmh 30.11 in1019.6 mb - 0.00 in0.0 mm 0.00 in0.0 mm
12:50 AM 45.0°F7.2°C 42.9°F6.1°C 92% 8.1 mph SSW13.0 kmh SSW 9.2 mph14.8 kmh 30.11 in1019.6 mb - 0.00 in0.0 mm 0.00 in0.0 mm
12:40 AM 45.0°F7.2°C 42.8°F6.0°C 92% 8.1 mph SW13.0 kmh SW 9.2 mph14.8 kmh 30.11 in1019.6 mb - 0.00 in0.0 mm 0.00 in0.0 mm
12:30 AM 45.0°F7.2°C 42.9°F6.1°C 92% 6.9 mph SW11.1 kmh SW 8.1 mph13.0 kmh 30.11 in1019.6 mb - 0.00 in0.0 mm 0.00 in0.0 mm
12:20 AM 45.0°F7.2°C 42.8°F6.0°C 92% 2.3 mph SW3.7 kmh SW 2.3 mph3.7 kmh 30.11 in1019.6 mb - 0.00 in0.0 mm 0.00 in0.0 mm
12:10 AM 45.0°F7.2°C 42.8°F6.0°C 92% 4.6 mph SW7.4 kmh SW 4.6 mph7.4 kmh 30.12 in1020.0 mb - 0.00 in0.0 mm 0.00 in0.0 mm
12:00 AM 45.0°F7.2°C 42.8°F6.0°C 92% 4.6 mph SW7.4 kmh SW 5.8 mph9.3 kmh 30.12 in1020.0 mb - 0.00 in0.0 mm 0.00 in0.0 mm